createdAt,value
2023-03-12T00:00:11.418Z,97664.18
2023-03-12T00:02:59.455Z,97663.98
2023-03-12T00:05:28.324Z,97673.05
2023-03-12T00:07:59.754Z,97677.04
2023-03-12T00:10:27.568Z,97676.52
2023-03-12T00:12:55.977Z,97679.13
2023-03-12T00:15:23.642Z,97680.38
2023-03-12T00:17:51.322Z,97687.91
2023-03-12T00:20:20.059Z,97694.20
2023-03-12T00:22:47.660Z,97693.79
2023-03-12T00:25:16.067Z,97697.36
2023-03-12T00:27:44.369Z,97701.46
2023-03-12T00:30:12.712Z,97699.23
2023-03-12T00:32:40.447Z,97699.20
2023-03-12T00:35:08.997Z,97700.85
2023-03-12T00:37:38.458Z,97702.20
2023-03-12T00:40:09.327Z,97699.48
2023-03-12T00:42:37.321Z,97705.35
2023-03-12T00:45:05.652Z,97702.33
2023-03-12T00:47:33.344Z,97699.55
2023-03-12T00:50:01.242Z,97699.89
2023-03-12T00:52:28.903Z,97706.84
2023-03-12T00:54:59.088Z,97704.67
2023-03-12T00:57:26.888Z,97705.23
2023-03-12T00:59:54.570Z,97703.73
2023-03-12T01:02:22.384Z,97705.14
2023-03-12T01:04:50.471Z,97703.37
2023-03-12T01:07:18.224Z,97706.40
2023-03-12T01:09:45.849Z,97702.05
2023-03-12T01:12:13.854Z,97703.00
2023-03-12T01:14:41.487Z,97700.59
2023-03-12T01:17:09.119Z,97699.75
2023-03-12T01:19:36.876Z,97701.90
2023-03-12T01:22:04.609Z,97702.48
2023-03-12T01:24:32.481Z,97699.48
2023-03-12T01:27:00.278Z,97701.58
2023-03-12T01:29:27.932Z,97696.79
2023-03-12T01:31:55.612Z,97700.23
2023-03-12T01:34:23.430Z,97700.15
2023-03-12T01:36:51.127Z,97696.03
2023-03-12T01:39:18.860Z,97692.31
2023-03-12T01:41:46.543Z,97697.55
2023-03-12T01:44:14.550Z,97698.42
2023-03-12T01:46:43.337Z,97704.61
2023-03-12T01:49:29.998Z,97708.22
2023-03-12T01:52:00.293Z,97710.79
2023-03-12T01:54:45.586Z,97711.50
2023-03-12T01:57:37.469Z,97711.49
2023-03-12T02:00:09.805Z,97718.46
2023-03-12T02:02:37.759Z,97717.14
2023-03-12T02:05:25.234Z,97719.49
2023-03-12T02:07:52.946Z,97717.60
2023-03-12T02:10:21.588Z,97717.20
2023-03-12T02:12:49.597Z,97724.45
2023-03-12T02:15:17.440Z,97733.38
2023-03-12T02:17:45.097Z,97731.68
2023-03-12T02:20:48.698Z,97733.61
2023-03-12T02:23:30.528Z,97735.45
2023-03-12T02:25:58.596Z,97737.94
2023-03-12T02:28:28.269Z,97735.81
2023-03-12T02:31:00.710Z,97737.86
2023-03-12T02:33:28.868Z,97737.83
2023-03-12T02:35:56.805Z,97742.94
2023-03-12T02:38:42.817Z,97750.42
2023-03-12T02:41:10.953Z,97751.03
2023-03-12T02:43:38.933Z,97760.15
2023-03-12T02:46:06.884Z,97757.46
2023-03-12T02:48:34.699Z,97755.11
2023-03-12T02:51:03.365Z,97764.89
2023-03-12T02:53:31.039Z,97767.03
2023-03-12T02:55:58.868Z,97770.27
2023-03-12T02:58:26.637Z,97773.83
2023-03-12T03:00:54.504Z,97773.92
2023-03-12T03:03:22.424Z,97778.23
2023-03-12T03:05:50.099Z,97778.85
2023-03-12T03:08:17.898Z,97786.80
2023-03-12T03:10:46.020Z,97783.66
2023-03-12T03:13:13.647Z,97785.98
2023-03-12T03:15:41.669Z,97787.29
2023-03-12T03:18:09.475Z,97792.71
2023-03-12T03:20:37.100Z,97792.48
2023-03-12T03:23:05.149Z,97794.57
2023-03-12T03:25:33.422Z,97795.35
2023-03-12T03:28:01.083Z,97799.63
2023-03-12T03:30:29.089Z,97803.89
2023-03-12T03:32:56.823Z,97808.56
2023-03-12T03:35:24.498Z,97809.48
2023-03-12T03:37:52.297Z,97809.36
2023-03-12T03:40:20.046Z,97809.33
2023-03-12T03:42:47.700Z,97814.28
2023-03-12T03:45:15.637Z,97817.32
2023-03-12T03:47:43.504Z,97811.54
2023-03-12T03:50:11.747Z,97817.89
2023-03-12T03:52:39.655Z,97813.09
2023-03-12T03:55:08.188Z,97811.40
2023-03-12T03:57:35.815Z,97807.73
2023-03-12T04:00:08.943Z,97810.51
2023-03-12T04:02:36.572Z,97806.77
2023-03-12T04:05:04.717Z,97807.43
2023-03-12T04:07:32.658Z,97813.33
2023-03-12T04:10:00.708Z,97812.67
2023-03-12T04:12:28.723Z,97809.98
2023-03-12T04:14:56.614Z,97812.11
2023-03-12T04:17:24.525Z,97815.44
2023-03-12T04:19:52.188Z,97817.27
2023-03-12T04:22:20.108Z,97820.33
2023-03-12T04:24:48.286Z,97827.13
2023-03-12T04:27:16.011Z,97825.64
2023-03-12T04:29:43.901Z,97828.66
2023-03-12T04:32:11.741Z,97830.30
2023-03-12T04:34:39.383Z,97836.42
2023-03-12T04:37:08.012Z,97842.45
2023-03-12T04:39:35.967Z,97842.48
2023-03-12T04:42:03.659Z,97844.88
2023-03-12T04:44:31.719Z,97840.42
2023-03-12T04:46:59.416Z,97843.61
2023-03-12T04:49:27.088Z,97843.05
2023-03-12T04:51:55.034Z,97847.98
2023-03-12T04:54:23.066Z,97856.67
2023-03-12T04:56:50.772Z,97851.23
2023-03-12T04:59:18.925Z,97855.89
2023-03-12T05:01:46.598Z,97852.50
2023-03-12T05:04:14.457Z,97859.31
2023-03-12T05:06:42.386Z,97862.77
2023-03-12T05:09:10.414Z,97860.54
2023-03-12T05:11:39.806Z,97862.52
2023-03-12T05:14:07.993Z,97868.11
2023-03-12T05:16:36.090Z,97863.96
2023-03-12T05:19:04.331Z,97865.52
2023-03-12T05:21:32.031Z,97866.77
2023-03-12T05:24:00.172Z,97865.69
2023-03-12T05:26:31.440Z,97868.66
2023-03-12T05:29:00.393Z,97868.52
2023-03-12T05:31:33.112Z,97871.17
2023-03-12T05:34:02.249Z,97872.30
2023-03-12T05:36:30.298Z,97876.50
2023-03-12T05:38:58.121Z,97883.48
2023-03-12T05:41:27.650Z,97884.64
2023-03-12T05:43:56.417Z,97890.95
2023-03-12T05:46:25.107Z,97892.52
2023-03-12T05:48:53.055Z,97901.75
2023-03-12T05:51:21.111Z,97905.77
2023-03-12T05:53:48.747Z,97909.06
2023-03-12T05:56:17.378Z,97905.12
2023-03-12T05:58:45.406Z,97909.03
2023-03-12T06:01:24.449Z,97912.71
2023-03-12T06:03:52.435Z,97910.07
2023-03-12T06:06:20.226Z,97923.58
2023-03-12T06:08:48.280Z,97922.80
2023-03-12T06:11:16.170Z,97924.72
2023-03-12T06:13:44.026Z,97930.54
2023-03-12T06:16:16.277Z,97930.23
2023-03-12T06:18:44.113Z,97932.92
2023-03-12T06:21:19.002Z,97930.92
2023-03-12T06:23:47.173Z,97933.52
2023-03-12T06:26:15.435Z,97935.96
2023-03-12T06:28:43.601Z,97936.86
2023-03-12T06:31:11.954Z,97940.28
2023-03-12T06:33:39.782Z,97939.60
2023-03-12T06:36:08.434Z,97941.11
2023-03-12T06:38:36.728Z,97951.95
2023-03-12T06:41:09.799Z,97954.94
2023-03-12T06:43:38.009Z,97956.00
2023-03-12T06:46:07.297Z,97961.81
2023-03-12T06:48:37.011Z,97959.66
2023-03-12T06:51:05.680Z,97956.16
2023-03-12T06:53:33.656Z,97956.71
2023-03-12T06:56:02.226Z,97948.98
2023-03-12T06:58:30.351Z,97953.98
2023-03-12T07:00:58.274Z,97955.15
2023-03-12T07:03:26.449Z,97963.76
2023-03-12T07:05:55.495Z,97960.42
2023-03-12T07:08:23.378Z,97964.12
2023-03-12T07:10:52.025Z,97965.91
2023-03-12T07:13:20.320Z,97965.12
2023-03-12T07:15:48.750Z,97965.92
2023-03-12T07:18:17.404Z,97962.76
2023-03-12T07:20:47.407Z,97963.40
2023-03-12T07:23:15.396Z,97965.90
2023-03-12T07:25:44.507Z,97969.36
2023-03-12T07:28:13.045Z,97967.27
2023-03-12T07:30:41.036Z,97965.22
2023-03-12T07:33:11.090Z,97967.63
2023-03-12T07:35:39.649Z,97966.36
2023-03-12T07:38:08.278Z,97964.05
2023-03-12T07:40:36.944Z,97967.00
2023-03-12T07:43:11.032Z,97966.55
2023-03-12T07:45:39.660Z,97970.00
2023-03-12T07:48:08.188Z,97962.73
2023-03-12T07:50:36.156Z,97960.41
2023-03-12T07:53:05.188Z,97961.21
2023-03-12T07:55:34.179Z,97970.94
2023-03-12T07:58:02.287Z,97969.96
2023-03-12T08:00:31.367Z,97975.30
2023-03-12T08:03:00.007Z,97979.77
2023-03-12T08:05:28.127Z,97983.90
2023-03-12T08:07:56.351Z,97983.27
2023-03-12T08:10:24.852Z,97987.52
2023-03-12T08:12:52.577Z,97989.36
2023-03-12T08:15:21.104Z,97990.18
2023-03-12T08:17:49.458Z,97988.35
2023-03-12T08:20:17.907Z,97982.77
2023-03-12T08:22:45.838Z,97981.98
2023-03-12T08:25:14.421Z,97985.77
2023-03-12T08:27:42.175Z,97985.21
2023-03-12T08:30:10.902Z,97978.94
2023-03-12T08:32:39.458Z,97976.61
2023-03-12T08:35:08.069Z,97979.14
2023-03-12T08:37:36.796Z,97984.77
2023-03-12T08:40:13.123Z,97984.50
2023-03-12T08:42:41.945Z,97984.55
2023-03-12T08:45:11.007Z,97989.76
2023-03-12T08:47:41.564Z,97995.63
2023-03-12T08:50:13.147Z,97997.98
2023-03-12T08:52:41.116Z,97996.61
2023-03-12T08:55:10.373Z,97997.52
2023-03-12T08:57:38.718Z,98000.02
2023-03-12T09:00:11.442Z,98005.46
2023-03-12T09:02:39.895Z,98004.66
2023-03-12T09:05:08.245Z,98002.16
2023-03-12T09:07:35.956Z,98002.71
2023-03-12T09:10:04.783Z,98002.44
2023-03-12T09:12:32.669Z,97996.71
2023-03-12T09:15:04.757Z,97996.23
2023-03-12T09:17:33.017Z,97996.35
2023-03-12T09:20:00.931Z,97991.41
2023-03-12T09:22:30.293Z,97987.55
2023-03-12T09:24:58.229Z,97987.84
2023-03-12T09:27:26.421Z,97987.27
2023-03-12T09:30:00.305Z,97980.94
2023-03-12T09:32:29.538Z,97983.10
2023-03-12T09:34:57.493Z,97981.54
2023-03-12T09:37:25.473Z,97977.60
2023-03-12T09:39:54.052Z,97972.42
2023-03-12T09:42:28.026Z,97970.55
2023-03-12T09:44:55.931Z,97977.54
2023-03-12T09:47:27.150Z,97978.23
2023-03-12T09:50:21.767Z,97974.27
2023-03-12T09:53:19.645Z,97973.02
2023-03-12T09:55:48.287Z,97972.95
2023-03-12T09:58:26.672Z,97974.75
2023-03-12T10:01:24.218Z,97975.69
2023-03-12T10:04:13.741Z,97977.05
2023-03-12T10:07:11.470Z,97981.55
2023-03-12T10:09:48.733Z,97985.89
2023-03-12T10:12:22.749Z,97980.08
2023-03-12T10:15:09.042Z,97984.85
2023-03-12T10:17:55.971Z,97987.80
2023-03-12T10:20:32.753Z,97987.21
2023-03-12T10:23:14.337Z,97981.73
2023-03-12T10:25:48.950Z,97984.17
2023-03-12T10:28:47.329Z,97984.42
2023-03-12T10:31:44.273Z,97987.54
2023-03-12T10:34:44.620Z,97981.80
2023-03-12T10:37:19.044Z,97981.89
2023-03-12T10:39:46.994Z,97981.98
2023-03-12T10:42:17.629Z,97981.77
2023-03-12T10:44:47.335Z,97981.56
2023-03-12T10:47:37.712Z,97981.64
2023-03-12T10:50:23.485Z,97983.67
2023-03-12T10:52:52.174Z,97983.56
2023-03-12T10:55:24.270Z,97985.58
2023-03-12T10:57:53.158Z,97981.30
2023-03-12T11:00:32.549Z,97975.69
2023-03-12T11:03:04.755Z,97977.52
2023-03-12T11:05:37.498Z,97974.58
2023-03-12T11:08:32.661Z,97976.84
2023-03-12T11:11:01.759Z,97980.18
2023-03-12T11:13:38.108Z,97983.59
2023-03-12T11:16:18.331Z,97983.10
2023-03-12T11:19:02.212Z,97981.41
2023-03-12T11:21:37.083Z,97981.63
2023-03-12T11:24:07.699Z,97981.98
2023-03-12T11:27:27.167Z,97978.52
2023-03-12T11:29:54.947Z,97971.98
2023-03-12T11:32:30.087Z,97972.73
2023-03-12T11:34:57.994Z,97974.73
2023-03-12T11:37:40.276Z,97981.12
2023-03-12T11:40:20.567Z,97974.46
2023-03-12T11:43:13.640Z,97973.69
2023-03-12T11:46:06.375Z,97972.27
2023-03-12T11:49:14.521Z,97981.88
2023-03-12T11:52:04.611Z,97975.70
2023-03-12T11:54:45.472Z,97983.74
2023-03-12T11:57:35.658Z,97985.57
2023-03-12T12:00:12.874Z,97981.45
2023-03-12T12:02:43.504Z,97984.52
2023-03-12T12:05:42.372Z,97982.00
2023-03-12T12:08:42.791Z,97978.46
2023-03-12T12:11:15.414Z,97976.85
2023-03-12T12:14:04.761Z,97980.97
2023-03-12T12:16:57.818Z,97979.36
2023-03-12T12:19:44.890Z,97973.08
2023-03-12T12:22:24.982Z,97973.38
2023-03-12T12:25:24.213Z,97980.80
2023-03-12T12:28:13.998Z,97978.23
2023-03-12T12:30:45.050Z,97977.62
2023-03-12T12:33:19.012Z,97976.90
2023-03-12T12:35:46.837Z,97967.84
2023-03-12T12:38:30.727Z,97968.55
2023-03-12T12:41:08.242Z,97971.98
2023-03-12T12:43:40.823Z,97967.80
2023-03-12T12:46:28.515Z,97967.40
2023-03-12T12:49:00.106Z,97964.10
2023-03-12T12:51:35.649Z,97969.27
2023-03-12T12:54:24.279Z,97968.55
2023-03-12T12:57:19.252Z,97971.60
2023-03-12T13:00:02.815Z,97973.83
2023-03-12T13:02:31.094Z,97970.06
2023-03-12T13:04:58.988Z,97971.80
2023-03-12T13:07:28.119Z,97969.39
2023-03-12T13:09:59.362Z,97967.63
2023-03-12T13:12:35.460Z,97968.32
2023-03-12T13:15:28.745Z,97967.16
2023-03-12T13:17:59.770Z,97969.85
2023-03-12T13:20:46.954Z,97975.41
2023-03-12T13:23:36.374Z,97977.13
2023-03-12T13:26:08.703Z,97979.18
2023-03-12T13:29:06.203Z,97971.64
2023-03-12T13:31:40.989Z,97973.05
2023-03-12T13:34:18.590Z,97975.81
2023-03-12T13:37:02.481Z,97978.79
2023-03-12T13:39:35.162Z,97975.31
2023-03-12T13:42:25.462Z,97978.77
2023-03-12T13:44:54.177Z,97978.98
2023-03-12T13:47:29.992Z,97974.59
2023-03-12T13:49:59.888Z,97972.95
2023-03-12T13:52:48.612Z,97976.58
2023-03-12T13:55:25.633Z,97978.29
2023-03-12T13:58:21.466Z,97975.78
2023-03-12T14:00:55.179Z,97981.09
2023-03-12T14:03:35.481Z,97981.00
2023-03-12T14:06:14.039Z,97975.47
2023-03-12T14:09:06.736Z,97977.98
2023-03-12T14:11:41.823Z,97978.14
2023-03-12T14:14:43.856Z,97979.66
2023-03-12T14:17:27.655Z,97980.82
2023-03-12T14:20:10.934Z,97984.70
2023-03-12T14:22:39.503Z,97980.15
2023-03-12T14:25:34.964Z,97983.55
2023-03-12T14:28:04.066Z,97983.05
2023-03-12T14:30:31.702Z,97991.14
2023-03-12T14:33:01.366Z,97995.95
2023-03-12T14:35:34.093Z,97995.56
2023-03-12T14:38:20.710Z,97993.94
2023-03-12T14:40:51.345Z,98000.23
2023-03-12T14:43:26.367Z,97994.79
2023-03-12T14:45:56.195Z,97994.35
2023-03-12T14:48:31.989Z,97994.35
2023-03-12T14:51:00.838Z,97995.82
2023-03-12T14:53:31.004Z,97992.82
2023-03-12T14:56:29.626Z,97993.92
2023-03-12T14:58:59.244Z,97990.83
2023-03-12T15:01:31.614Z,97986.48
2023-03-12T15:04:01.410Z,97989.42
2023-03-12T15:06:30.747Z,97986.94
2023-03-12T15:08:59.116Z,97988.15
2023-03-12T15:11:27.499Z,97986.67
2023-03-12T15:13:56.088Z,97989.39
2023-03-12T15:16:23.983Z,97987.93
2023-03-12T15:18:53.029Z,97984.20
2023-03-12T15:21:21.205Z,97983.11
2023-03-12T15:23:49.098Z,97981.89
2023-03-12T15:26:26.331Z,97981.05
2023-03-12T15:29:27.706Z,97973.80
2023-03-12T15:31:57.525Z,97975.88
2023-03-12T15:34:36.377Z,97987.77
2023-03-12T15:37:41.406Z,97977.11
2023-03-12T15:40:29.334Z,97978.17
2023-03-12T15:43:00.863Z,97978.30
2023-03-12T15:45:37.660Z,97978.75
2023-03-12T15:48:16.261Z,97974.63
2023-03-12T15:50:44.455Z,97970.27
2023-03-12T15:53:12.361Z,97975.38
2023-03-12T15:55:41.796Z,97981.95
2023-03-12T15:58:28.740Z,97982.11
2023-03-12T16:01:16.098Z,97973.73
2023-03-12T16:03:45.738Z,97969.11
2023-03-12T16:06:18.323Z,97970.53
2023-03-12T16:08:48.407Z,97974.00
2023-03-12T16:11:24.036Z,97980.89
2023-03-12T16:13:53.219Z,97972.27
2023-03-12T16:16:21.131Z,97978.39
2023-03-12T16:18:49.173Z,97980.17
2023-03-12T16:21:17.129Z,97986.34
2023-03-12T16:23:44.764Z,97994.41
2023-03-12T16:26:12.771Z,97998.81
2023-03-12T16:28:40.831Z,98000.96
2023-03-12T16:31:15.247Z,97999.84
2023-03-12T16:33:44.025Z,98001.38
2023-03-12T16:36:15.865Z,98003.66
2023-03-12T16:38:43.943Z,98002.13
2023-03-12T16:41:13.480Z,98004.42
2023-03-12T16:43:41.705Z,98006.41
2023-03-12T16:46:09.790Z,98002.20
2023-03-12T16:48:37.777Z,97996.23
2023-03-12T16:51:06.259Z,97991.28
2023-03-12T16:53:34.158Z,98000.05
2023-03-12T16:56:01.982Z,97997.19
2023-03-12T16:58:29.980Z,97996.90
2023-03-12T17:00:58.048Z,97994.88
2023-03-12T17:03:35.790Z,97991.10
2023-03-12T17:06:05.376Z,97983.01
2023-03-12T17:08:33.155Z,97977.02
2023-03-12T17:11:01.393Z,97968.98
2023-03-12T17:13:29.501Z,97964.02
2023-03-12T17:15:57.733Z,97966.98
2023-03-12T17:18:25.918Z,97969.96
2023-03-12T17:20:55.397Z,97975.52
2023-03-12T17:23:24.616Z,97975.92
2023-03-12T17:25:52.421Z,97975.98
2023-03-12T17:28:20.512Z,97980.58
2023-03-12T17:30:48.191Z,97982.96
2023-03-12T17:33:17.745Z,97985.89
2023-03-12T17:35:46.027Z,97986.73
2023-03-12T17:38:13.912Z,97988.13
2023-03-12T17:40:43.530Z,97987.27
2023-03-12T17:43:11.898Z,97981.37
2023-03-12T17:45:39.964Z,97983.08
2023-03-12T17:48:07.794Z,97977.86
2023-03-12T17:50:35.912Z,97973.30
2023-03-12T17:53:03.561Z,97969.09
2023-03-12T17:55:31.403Z,97964.19
2023-03-12T17:57:59.283Z,97965.69
2023-03-12T18:00:26.959Z,97969.08
2023-03-12T18:02:55.462Z,97965.55
2023-03-12T18:05:23.718Z,97962.72
2023-03-12T18:07:52.085Z,97966.16
2023-03-12T18:10:19.835Z,97970.45
2023-03-12T18:12:48.286Z,97972.48
2023-03-12T18:15:16.966Z,97971.56
2023-03-12T18:17:45.490Z,97967.74
2023-03-12T18:20:19.550Z,97969.95
2023-03-12T18:22:51.307Z,97975.09
2023-03-12T18:25:20.142Z,97987.63
2023-03-12T18:27:47.918Z,97988.92
2023-03-12T18:30:16.082Z,97983.84
2023-03-12T18:32:45.291Z,97973.94
2023-03-12T18:35:12.933Z,97965.20
2023-03-12T18:37:41.137Z,97964.73
2023-03-12T18:40:10.151Z,97954.48
2023-03-12T18:42:38.196Z,97943.98
2023-03-12T18:45:06.784Z,97947.15
2023-03-12T18:47:36.032Z,97953.46
2023-03-12T18:50:04.098Z,97959.07
2023-03-12T18:52:32.421Z,97961.40
2023-03-12T18:55:01.106Z,97970.62
2023-03-12T18:57:29.049Z,97969.88
2023-03-12T18:59:57.347Z,97960.65
2023-03-12T19:02:25.414Z,97953.00
2023-03-12T19:04:55.920Z,97951.05
2023-03-12T19:07:24.152Z,97952.90
2023-03-12T19:09:52.202Z,97951.99
2023-03-12T19:12:19.827Z,97955.58
2023-03-12T19:14:48.046Z,97960.73
2023-03-12T19:17:16.118Z,97957.92
2023-03-12T19:19:43.932Z,97951.30
2023-03-12T19:22:11.634Z,97957.31
2023-03-12T19:24:42.859Z,97957.98
2023-03-12T19:27:11.055Z,97960.91
2023-03-12T19:29:38.768Z,97961.92
2023-03-12T19:32:06.727Z,97957.92
2023-03-12T19:34:34.553Z,97960.00
2023-03-12T19:37:02.733Z,97953.96
2023-03-12T19:39:31.162Z,97953.09
2023-03-12T19:41:59.380Z,97953.05
2023-03-12T19:44:27.356Z,97949.95
2023-03-12T19:46:55.329Z,97946.98
2023-03-12T19:49:23.098Z,97934.54
2023-03-12T19:51:50.964Z,97931.23
2023-03-12T19:54:19.983Z,97927.91
2023-03-12T19:56:47.697Z,97923.40
2023-03-12T19:59:15.574Z,97920.95
2023-03-12T20:01:43.486Z,97920.77
2023-03-12T20:04:11.634Z,97919.52
2023-03-12T20:06:39.584Z,97917.09
2023-03-12T20:09:07.656Z,97916.23
2023-03-12T20:11:38.337Z,97910.00
2023-03-12T20:14:06.370Z,97900.16
2023-03-12T20:16:34.249Z,97890.66
2023-03-12T20:19:01.993Z,97887.55
2023-03-12T20:21:30.814Z,97879.60
2023-03-12T20:23:59.224Z,97872.52
2023-03-12T20:26:26.920Z,97874.78
2023-03-12T20:28:54.788Z,97870.98
2023-03-12T20:31:22.665Z,97870.48
2023-03-12T20:33:50.346Z,97868.09
2023-03-12T20:36:18.186Z,97867.59
2023-03-12T20:38:48.302Z,97870.19
2023-03-12T20:41:16.070Z,97870.06
2023-03-12T20:43:44.857Z,97866.45
2023-03-12T20:46:13.542Z,97874.45
2023-03-12T20:48:41.926Z,97869.65
2023-03-12T20:51:09.653Z,97867.25
2023-03-12T20:53:37.522Z,97866.95
2023-03-12T20:56:07.223Z,97858.01
2023-03-12T20:58:35.554Z,97853.18
2023-03-12T21:01:04.167Z,97849.58
2023-03-12T21:03:32.028Z,97858.05
2023-03-12T21:06:01.460Z,97863.05
2023-03-12T21:08:29.418Z,97856.16
2023-03-12T21:10:57.034Z,97860.14
2023-03-12T21:13:24.869Z,97858.94
2023-03-12T21:15:52.730Z,97853.78
2023-03-12T21:18:20.432Z,97850.49
2023-03-12T21:20:48.397Z,97845.34
2023-03-12T21:23:16.518Z,97829.80
2023-03-12T21:25:44.156Z,97834.45
2023-03-12T21:28:12.217Z,97846.69
2023-03-12T21:30:40.075Z,97849.45
2023-03-12T21:33:07.838Z,97850.82
2023-03-12T21:35:35.842Z,97846.85
2023-03-12T21:38:03.647Z,97846.86
2023-03-12T21:40:31.407Z,97847.56
2023-03-12T21:42:59.155Z,97846.88
2023-03-12T21:45:27.150Z,97850.18
2023-03-12T21:47:54.892Z,97838.27
2023-03-12T21:50:23.007Z,97831.73
2023-03-12T21:52:51.778Z,97830.01
2023-03-12T21:55:19.561Z,97829.66
2023-03-12T21:57:47.451Z,97835.56
2023-03-12T22:00:15.669Z,97831.43
2023-03-12T22:02:47.357Z,97828.70
2023-03-12T22:05:18.232Z,97830.11
2023-03-12T22:07:46.041Z,97837.25
2023-03-12T22:10:13.732Z,97834.55
2023-03-12T22:12:41.800Z,97833.73
2023-03-12T22:15:10.296Z,97839.67
2023-03-12T22:17:38.004Z,97837.11
2023-03-12T22:20:08.107Z,97830.98
2023-03-12T22:22:36.318Z,97826.73
2023-03-12T22:25:04.379Z,97827.14
2023-03-12T22:27:32.285Z,97828.42
2023-03-12T22:29:59.903Z,97824.67
2023-03-12T22:32:28.238Z,97828.05
2023-03-12T22:34:56.285Z,97819.79
2023-03-12T22:37:24.235Z,97821.23
2023-03-12T22:39:52.290Z,97823.19
2023-03-12T22:42:20.098Z,97828.96
2023-03-12T22:44:48.161Z,97833.88
2023-03-12T22:47:15.927Z,97833.08
2023-03-12T22:49:44.508Z,97832.27
2023-03-12T22:52:12.624Z,97835.10
2023-03-12T22:54:40.345Z,97835.84
2023-03-12T22:57:08.211Z,97837.46
2023-03-12T22:59:36.516Z,97835.06
2023-03-12T23:02:04.299Z,97826.83
2023-03-12T23:04:32.353Z,97830.16
2023-03-12T23:07:13.318Z,97830.55
2023-03-12T23:09:41.781Z,97829.05
2023-03-12T23:12:10.090Z,97822.18
2023-03-12T23:14:37.722Z,97818.42
2023-03-12T23:17:05.445Z,97816.71
2023-03-12T23:19:33.669Z,97817.77
2023-03-12T23:22:01.299Z,97828.50
2023-03-12T23:24:32.365Z,97832.52
2023-03-12T23:27:00.400Z,97834.80
2023-03-12T23:29:29.767Z,97829.12
2023-03-12T23:31:57.842Z,97826.89
2023-03-12T23:34:26.027Z,97825.88
2023-03-12T23:36:53.685Z,97825.73
2023-03-12T23:39:21.617Z,97830.96
2023-03-12T23:41:49.553Z,97832.02
2023-03-12T23:44:17.159Z,97828.59
2023-03-12T23:46:45.130Z,97822.05
2023-03-12T23:49:13.291Z,97815.84
2023-03-12T23:51:41.074Z,97820.05
2023-03-12T23:54:09.131Z,97818.69
2023-03-12T23:56:38.423Z,97826.85
2023-03-12T23:59:07.164Z,97825.88
